BGTL

Thule Air Base Airport

Qaanaaq, , Greenland
METAR BGTL 220556Z AUTO 00000KT 9999 FEW036 M09/M10 A2984 RMK AO2 SLP093 60000 T10861104 11067 21091 57023 TSNO $
Observed Flight Rules
Apr-22 @ 05:56 UTC (59 minutes ago) Visual Flight Rules
Visibility Clouds
10,000+ meters
  • Few at 3,600' AGL
Temperatures Readings
Current -9°C / 16°F
Dewpoint -10°C / 14°F
Humidity 93%
Altimeter 29.84" Hg
Pressure 1009.3 hPa
Elevation 77
METAR BGTL 220556Z AUTO 00000KT 9999 FEW036 M09/M10 A2984 RMK AO2 SLP093 60000 T10861104 11067 21091 57023 TSNO $
Observed Flight Rules
Apr-22 @ 05:56 UTC
(59 minutes ago)
VFR
Clouds
  • Few at 3,600' AGL
Temperature Dewpoint
-9°C / 16°F -10°C / 14°F
Humidity Altimeter Pressure
93% 29.84" Hg 1009.3 hPa